Terminal Aerodrome Forecast
Issued by NWS

Home | Current Version | Previous Version | Text Only | Print | Product List | Glossary On
Versions: 1 2 3 4 5 6 7 8 9 10 11 12 13 14 15
000
FTPA31 PHFO 071741
TAFHTO
TAF
PHTO 071741Z 0718/0818 24005KT P6SM BKN035
     FM072100 11008KT P6SM VCSH SCT025 BKN040
      TEMPO 0721/0801 4SM SHRA BR BKN025
     FM080100 14007KT P6SM VCSH SCT025 BKN030
     FM080800 24004KT P6SM SCT025 BKN040=

USA.gov is the U.S. government's official web portal to all federal, state and local government web resources and services.